Terminal Aerodrome Forecast
Issued by NWS

Home | Current Version | Previous Version | Text Only | Print | Product List | Glossary On
Versions: 1 2 3 4 5 6 7 8 9 10 11 12 13 14 15 16 17 18 19 20 21 22 23 24 25 26
000
FTUS44 KMAF 210100 AAB
TAFPEQ
TAF AMD
KPEQ 210159Z 2102/2124 07007KT 6SM BR SCT050 BKN110
      TEMPO 2102/2106 4SM BR
     FM210600 09007KT 5SM -SHRA BR OVC035
     FM211200 10005KT 3SM -SHRA BR OVC010=

USA.gov is the U.S. government's official web portal to all federal, state and local government web resources and services.